Oak Grove, Oregon
Current Conditions -  °F | °C
As of 1:53 PM on Friday 28 Nov 2014 (Local Time) from KPDX Reporting Station
Light Rain Light Rain  
Wind Chill: 55°   Ceiling: 1600
Heat Index: 55°   Visibility: 10mi
Dew Point: 52°   Wind: 18mph
Humidity: 89%   Direction: 190°S
Pressure: 29.48"   Gusts: NA
Location:  45.42°N, 122.64°W
Report Text: KPDX 282153Z 19016KT 10SM -RA BKN016 OVC021 13/11 A2948 RMK AO2 PK WND 18028/2056 RAE19B40 SLP983 P0000 T01280111
Loading
Personal Weather Stations






























Interactive Weather Map New forecast layout! Learn more

10-Day Weather Forecast

Advertisements
Track Severe Weather on mobile